Maquoketa, Iowa
Current Conditions -  °F | °C
As of 2:25 AM on Friday 24 Oct 2014 (Local Time) from KDBQ Reporting Station
Haze Haze  
Wind Chill: 50°   Ceiling: 400
Heat Index: 50°   Visibility: 5mi
Dew Point: 49°   Wind: 5mph
Humidity: 96%   Direction: 320°NW
Pressure: 30.05"   Gusts: NA
Location:  42.07°N, 90.66°W
Report Text: KDBQ 240725Z AUTO 32004KT 5SM BR OVC004 10/09 A3005 RMK AO2 T01000094
Loading
Personal Weather Stations






























Interactive Weather Map
Tropical Storm Tracking
New forecast layout! Learn more

10-Day Weather Forecast

Advertisements
Track Severe Weather on mobile